createdAt,value
2022-12-11T00:00:31.546Z,19.00
2022-12-11T00:03:05.225Z,17.20
2022-12-11T00:05:33.640Z,17.08
2022-12-11T00:08:03.156Z,20.02
2022-12-11T00:10:37.573Z,17.65
2022-12-11T00:13:06.276Z,14.88
2022-12-11T00:15:34.307Z,15.90
2022-12-11T00:18:02.554Z,15.93
2022-12-11T00:20:30.565Z,23.77
2022-12-11T00:22:58.741Z,37.00
2022-12-11T00:25:28.114Z,19.88
2022-12-11T00:27:56.204Z,19.65
2022-12-11T00:30:24.337Z,23.48
2022-12-11T00:32:58.433Z,32.00
2022-12-11T00:35:26.613Z,44.70
2022-12-11T00:37:58.055Z,51.60
2022-12-11T00:40:27.414Z,104.95
2022-12-11T00:42:55.712Z,116.15
2022-12-11T00:45:23.725Z,104.53
2022-12-11T00:47:51.862Z,151.82
2022-12-11T00:50:19.931Z,72.93
2022-12-11T00:52:47.922Z,74.30
2022-12-11T00:55:15.956Z,77.45
2022-12-11T00:57:45.370Z,168.40
2022-12-11T01:00:17.445Z,125.60
2022-12-11T01:02:45.501Z,85.55
2022-12-11T01:05:13.640Z,121.35
2022-12-11T01:07:41.803Z,94.60
2022-12-11T01:10:27.254Z,71.65
2022-12-11T01:12:58.533Z,52.95
2022-12-11T01:15:28.417Z,48.55
2022-12-11T01:17:59.670Z,58.38
2022-12-11T01:20:29.105Z,49.13
2022-12-11T01:22:59.831Z,42.95
2022-12-11T01:25:29.416Z,48.60
2022-12-11T01:27:58.828Z,40.20
2022-12-11T01:30:27.358Z,37.47
2022-12-11T01:33:01.310Z,36.10
2022-12-11T01:35:32.666Z,36.78
2022-12-11T01:38:00.746Z,37.33
2022-12-11T01:40:28.747Z,33.15
2022-12-11T01:42:58.209Z,35.65
2022-12-11T01:45:38.700Z,36.45
2022-12-11T01:48:12.406Z,33.47
2022-12-11T01:50:45.760Z,30.05
2022-12-11T01:53:18.646Z,29.42
2022-12-11T01:55:50.983Z,31.50
2022-12-11T01:58:22.080Z,29.73
2022-12-11T02:00:50.240Z,26.65
2022-12-11T02:03:18.295Z,29.42
2022-12-11T02:05:46.460Z,29.00
2022-12-11T02:08:14.865Z,29.65
2022-12-11T02:10:58.930Z,26.08
2022-12-11T02:13:36.293Z,26.52
2022-12-11T02:16:16.014Z,21.13
2022-12-11T02:18:50.598Z,22.35
2022-12-11T02:21:23.290Z,26.90
2022-12-11T02:24:25.787Z,28.20
2022-12-11T02:27:22.593Z,22.13
2022-12-11T02:29:55.058Z,24.52
2022-12-11T02:32:27.516Z,22.17
2022-12-11T02:35:01.457Z,20.95
2022-12-11T02:37:32.398Z,19.95
2022-12-11T02:40:00.444Z,22.40
2022-12-11T02:42:34.474Z,20.98
2022-12-11T02:45:06.093Z,15.75
2022-12-11T02:47:34.630Z,17.20
2022-12-11T02:50:07.570Z,20.25
2022-12-11T02:52:40.530Z,19.27
2022-12-11T02:55:11.293Z,18.50
2022-12-11T02:57:44.137Z,17.50
2022-12-11T03:00:18.750Z,14.13
2022-12-11T03:02:47.594Z,14.63
2022-12-11T03:05:16.648Z,16.08
2022-12-11T03:07:45.662Z,13.68
2022-12-11T03:10:16.865Z,10.23
2022-12-11T03:12:53.951Z,17.85
2022-12-11T03:15:30.352Z,15.68
2022-12-11T03:18:05.106Z,13.05
2022-12-11T03:20:39.378Z,14.80
2022-12-11T03:23:21.250Z,14.40
2022-12-11T03:25:55.041Z,14.77
2022-12-11T03:28:28.781Z,14.25
2022-12-11T03:33:35.780Z,11.90
2022-12-11T03:36:08.275Z,13.88
2022-12-11T03:38:40.332Z,11.07
2022-12-11T03:41:10.304Z,12.02
2022-12-11T03:43:39.974Z,11.70
2022-12-11T03:46:11.736Z,10.57
2022-12-11T03:48:42.837Z,13.95
2022-12-11T03:51:11.186Z,10.38
2022-12-11T03:53:40.365Z,15.73
2022-12-11T03:56:11.557Z,18.23
2022-12-11T03:58:39.977Z,11.90
2022-12-11T04:01:12.008Z,13.75
2022-12-11T04:03:40.686Z,14.40
2022-12-11T04:06:09.108Z,15.85
2022-12-11T04:08:37.264Z,17.52
2022-12-11T04:11:23.269Z,15.40
2022-12-11T04:14:11.407Z,13.38
2022-12-11T04:16:39.795Z,13.00
2022-12-11T04:19:25.264Z,16.20
2022-12-11T04:22:10.435Z,19.23
2022-12-11T04:24:38.408Z,14.00
2022-12-11T04:27:06.443Z,18.10
2022-12-11T04:29:34.543Z,17.52
2022-12-11T04:32:06.894Z,16.00
2022-12-11T04:34:36.975Z,15.02
2022-12-11T04:37:04.967Z,17.00
2022-12-11T04:39:33.055Z,14.60
2022-12-11T04:42:04.217Z,14.23
2022-12-11T04:44:32.219Z,15.90
2022-12-11T04:47:00.186Z,18.92
2022-12-11T04:49:32.330Z,15.52
2022-12-11T04:52:00.368Z,16.48
2022-12-11T04:54:30.279Z,13.80
2022-12-11T04:56:58.263Z,15.15
2022-12-11T04:59:29.521Z,13.77
2022-12-11T05:01:57.708Z,14.02
2022-12-11T05:04:25.930Z,15.30
2022-12-11T05:06:55.357Z,16.50
2022-12-11T05:09:23.457Z,18.45
2022-12-11T05:11:51.778Z,33.78
2022-12-11T05:14:20.034Z,28.80
2022-12-11T05:16:48.478Z,38.92
2022-12-11T05:19:20.166Z,47.65
2022-12-11T05:21:48.109Z,72.65
2022-12-11T05:24:17.589Z,73.22
2022-12-11T05:26:45.611Z,123.43
2022-12-11T05:29:13.644Z,96.78
2022-12-11T05:31:41.856Z,92.43
2022-12-11T05:34:13.034Z,87.13
2022-12-11T05:36:41.548Z,102.07
2022-12-11T05:39:09.930Z,109.53
2022-12-11T05:41:39.384Z,104.18
2022-12-11T05:44:07.385Z,95.35
2022-12-11T05:46:35.839Z,118.03
2022-12-11T05:49:03.898Z,130.57
2022-12-11T05:51:34.368Z,128.55
2022-12-11T05:54:02.684Z,98.78
2022-12-11T05:56:33.741Z,70.90
2022-12-11T05:59:09.600Z,44.50
2022-12-11T06:01:42.388Z,44.67
2022-12-11T06:04:12.049Z,53.27
2022-12-11T06:06:41.540Z,41.13
2022-12-11T06:09:09.689Z,45.53
2022-12-11T06:11:37.711Z,30.73
2022-12-11T06:14:07.171Z,31.55
2022-12-11T06:16:35.181Z,41.30
2022-12-11T06:19:03.397Z,38.95
2022-12-11T06:21:33.202Z,38.40
2022-12-11T06:24:06.832Z,37.95
2022-12-11T06:26:34.784Z,29.23
2022-12-11T06:29:05.291Z,28.58
2022-12-11T06:31:38.500Z,25.13
2022-12-11T06:34:06.576Z,31.52
2022-12-11T06:36:34.591Z,30.25
2022-12-11T06:39:02.584Z,35.58
2022-12-11T06:41:30.549Z,36.78
2022-12-11T06:43:58.567Z,38.45
2022-12-11T06:46:26.619Z,37.72
2022-12-11T06:48:56.100Z,39.20
2022-12-11T06:51:24.912Z,41.03
2022-12-11T06:53:54.086Z,47.88
2022-12-11T06:56:26.242Z,47.25
2022-12-11T06:59:07.072Z,47.15
2022-12-11T07:01:37.753Z,42.97
2022-12-11T07:04:13.678Z,45.45
2022-12-11T07:06:42.560Z,45.03
2022-12-11T07:09:19.280Z,47.63
2022-12-11T07:11:52.886Z,51.47
2022-12-11T07:14:22.481Z,47.83
2022-12-11T07:16:51.711Z,49.45
2022-12-11T07:19:22.209Z,47.42
2022-12-11T07:21:51.363Z,129.80
2022-12-11T07:24:20.851Z,52.47
2022-12-11T07:26:49.355Z,50.20
2022-12-11T07:29:18.626Z,51.72
2022-12-11T07:31:46.655Z,53.95
2022-12-11T07:34:15.278Z,57.40
2022-12-11T07:36:44.840Z,54.67
2022-12-11T07:39:13.719Z,60.47
2022-12-11T07:41:41.740Z,64.10
2022-12-11T07:44:10.031Z,80.07
2022-12-11T07:46:37.994Z,63.40
2022-12-11T07:49:06.995Z,70.50
2022-12-11T07:51:36.817Z,84.40
2022-12-11T07:54:08.593Z,96.68
2022-12-11T07:56:37.427Z,82.03
2022-12-11T07:59:07.565Z,77.00
2022-12-11T08:01:36.786Z,80.13
2022-12-11T08:04:05.906Z,59.60
2022-12-11T08:06:36.247Z,65.38
2022-12-11T08:09:08.277Z,57.58
2022-12-11T08:11:36.622Z,52.75
2022-12-11T08:14:06.526Z,59.40
2022-12-11T08:16:34.664Z,64.32
2022-12-11T08:19:02.729Z,59.63
2022-12-11T08:21:30.717Z,78.47
2022-12-11T08:23:58.719Z,404.95
2022-12-11T08:26:30.061Z,82.32
2022-12-11T08:28:58.714Z,56.45
2022-12-11T08:31:27.475Z,64.72
2022-12-11T08:33:57.234Z,61.03
2022-12-11T08:36:26.298Z,62.45
2022-12-11T08:38:56.324Z,61.38
2022-12-11T08:41:26.574Z,62.05
2022-12-11T08:43:56.361Z,60.33
2022-12-11T08:46:25.875Z,67.18
2022-12-11T08:48:54.225Z,60.80
2022-12-11T08:51:23.664Z,53.40
2022-12-11T08:53:52.402Z,63.35
2022-12-11T08:56:23.706Z,52.35
2022-12-11T08:58:52.367Z,49.22
2022-12-11T09:01:24.402Z,53.72
2022-12-11T09:03:53.734Z,49.20
2022-12-11T09:06:23.382Z,41.80
2022-12-11T09:08:53.603Z,47.83
2022-12-11T09:11:24.652Z,39.72
2022-12-11T09:13:53.124Z,39.63
2022-12-11T09:16:24.404Z,46.08
2022-12-11T09:18:55.133Z,47.83
2022-12-11T09:21:25.144Z,42.40
2022-12-11T09:23:54.685Z,46.58
2022-12-11T09:26:23.144Z,38.72
2022-12-11T09:28:53.369Z,49.75
2022-12-11T09:31:27.665Z,49.22
2022-12-11T09:33:57.932Z,56.92
2022-12-11T09:36:26.389Z,45.60
2022-12-11T09:38:54.886Z,47.53
2022-12-11T09:41:37.981Z,39.38
2022-12-11T09:44:32.321Z,43.80
2022-12-11T09:47:02.390Z,48.85
2022-12-11T09:49:38.949Z,41.22
2022-12-11T09:52:13.931Z,40.58
2022-12-11T09:54:49.224Z,46.60
2022-12-11T09:57:30.205Z,39.50
2022-12-11T10:00:13.735Z,40.78
2022-12-11T10:03:01.527Z,45.17
2022-12-11T10:05:52.029Z,40.90
2022-12-11T10:08:27.962Z,35.33
2022-12-11T10:11:04.923Z,38.72
2022-12-11T10:13:45.615Z,36.35
2022-12-11T10:16:21.600Z,39.38
2022-12-11T10:18:56.126Z,38.63
2022-12-11T10:21:25.950Z,44.53
2022-12-11T10:24:03.345Z,38.22
2022-12-11T10:26:32.684Z,35.95
2022-12-11T10:29:02.692Z,36.22
2022-12-11T10:31:44.347Z,36.33
2022-12-11T10:34:18.176Z,33.20
2022-12-11T10:36:46.534Z,38.50
2022-12-11T10:39:19.854Z,35.47
2022-12-11T10:41:52.866Z,45.42
2022-12-11T10:44:23.373Z,39.88
2022-12-11T10:47:04.142Z,42.70
2022-12-11T10:49:35.956Z,36.17
2022-12-11T10:52:12.062Z,32.60
2022-12-11T10:54:46.250Z,38.47
2022-12-11T10:57:16.411Z,41.20
2022-12-11T10:59:48.429Z,36.58
2022-12-11T11:02:26.550Z,40.30
2022-12-11T11:05:00.845Z,38.83
2022-12-11T11:07:31.181Z,39.58
2022-12-11T11:10:16.412Z,34.25
2022-12-11T11:12:46.581Z,33.70
2022-12-11T11:15:16.835Z,31.25
2022-12-11T11:17:54.489Z,33.17
2022-12-11T11:20:27.037Z,37.30
2022-12-11T11:23:00.144Z,31.13
2022-12-11T11:25:31.480Z,39.95
2022-12-11T11:28:02.504Z,38.75
2022-12-11T11:30:33.536Z,38.15
2022-12-11T11:33:06.818Z,41.30
2022-12-11T11:35:39.005Z,35.72
2022-12-11T11:38:18.596Z,37.65
2022-12-11T11:40:52.310Z,40.58
2022-12-11T11:43:30.401Z,38.83
2022-12-11T11:46:06.044Z,35.55
2022-12-11T11:48:41.160Z,36.67
2022-12-11T11:51:22.444Z,32.15
2022-12-11T11:53:52.609Z,35.53
2022-12-11T11:56:23.754Z,47.75
2022-12-11T11:59:02.383Z,39.55
2022-12-11T12:01:31.596Z,80.50
2022-12-11T12:04:00.176Z,41.60
2022-12-11T12:06:38.738Z,38.83
2022-12-11T12:09:19.312Z,40.38
2022-12-11T12:11:54.812Z,35.92
2022-12-11T12:14:51.818Z,36.80
2022-12-11T12:17:24.276Z,36.50
2022-12-11T12:20:04.005Z,35.47
2022-12-11T12:22:52.630Z,58.30
2022-12-11T12:25:26.914Z,44.20
2022-12-11T12:28:01.326Z,105.50
2022-12-11T12:30:41.214Z,42.63
2022-12-11T12:33:28.372Z,34.38
2022-12-11T12:36:12.371Z,31.33
2022-12-11T12:38:52.521Z,33.35
2022-12-11T12:41:26.696Z,32.03
2022-12-11T12:44:08.408Z,36.20
2022-12-11T12:46:50.139Z,31.75
2022-12-11T12:49:34.112Z,33.95
2022-12-11T12:52:08.385Z,33.97
2022-12-11T12:54:39.818Z,29.98
2022-12-11T12:57:08.534Z,37.90
2022-12-11T12:59:36.674Z,34.47
2022-12-11T13:02:07.530Z,29.23
2022-12-11T13:04:55.424Z,34.65
2022-12-11T13:07:30.187Z,31.63
2022-12-11T13:10:08.081Z,31.83
2022-12-11T13:12:43.661Z,29.35
2022-12-11T13:15:35.020Z,33.40
2022-12-11T13:18:05.210Z,30.73
2022-12-11T13:20:35.077Z,38.30
2022-12-11T13:23:27.288Z,33.78
2022-12-11T13:25:58.670Z,38.35
2022-12-11T13:28:31.338Z,37.40
2022-12-11T13:31:02.700Z,41.28
2022-12-11T13:33:31.618Z,35.92
2022-12-11T13:36:24.801Z,38.72
2022-12-11T13:38:56.390Z,31.85
2022-12-11T13:41:26.134Z,33.75
2022-12-11T13:43:54.943Z,37.78
2022-12-11T13:46:27.718Z,36.42
2022-12-11T13:49:01.030Z,41.83
2022-12-11T13:51:31.825Z,32.30
2022-12-11T13:54:16.760Z,33.00
2022-12-11T13:56:57.152Z,39.03
2022-12-11T13:59:29.088Z,49.83
2022-12-11T14:02:01.342Z,35.30
2022-12-11T14:04:31.474Z,33.83
2022-12-11T14:07:00.539Z,35.22
2022-12-11T14:09:29.840Z,33.42
2022-12-11T14:11:59.815Z,35.72
2022-12-11T14:14:39.792Z,34.03
2022-12-11T14:17:07.926Z,37.90
2022-12-11T14:19:36.062Z,36.63
2022-12-11T14:22:08.014Z,38.10
2022-12-11T14:24:36.104Z,32.00
2022-12-11T14:27:05.891Z,31.08
2022-12-11T14:29:34.963Z,36.35
2022-12-11T14:32:05.940Z,37.83
2022-12-11T14:34:38.172Z,36.13
2022-12-11T14:37:08.452Z,30.27
2022-12-11T14:39:40.590Z,28.48
2022-12-11T14:42:15.290Z,33.72
2022-12-11T14:44:50.441Z,32.63
2022-12-11T14:47:22.157Z,34.17
2022-12-11T14:49:54.443Z,32.47
2022-12-11T14:52:27.471Z,35.88
2022-12-11T14:55:01.308Z,31.52
2022-12-11T15:00:00.832Z,30.33
2022-12-11T15:02:32.487Z,33.50
2022-12-11T15:05:18.111Z,36.28
2022-12-11T15:07:57.120Z,32.97
2022-12-11T15:10:31.648Z,31.38
2022-12-11T15:13:02.433Z,30.45
2022-12-11T15:15:34.938Z,37.95
2022-12-11T15:18:09.499Z,38.35
2022-12-11T15:20:42.311Z,38.55
2022-12-11T15:23:15.513Z,40.63
2022-12-11T15:25:52.917Z,43.55
2022-12-11T15:28:29.279Z,46.15
2022-12-11T15:30:59.189Z,46.55
2022-12-11T15:33:33.867Z,45.35
2022-12-11T15:36:05.703Z,44.08
2022-12-11T15:38:36.922Z,42.75
2022-12-11T15:41:05.959Z,32.20
2022-12-11T15:43:38.554Z,38.58
2022-12-11T15:46:07.588Z,39.45
2022-12-11T15:48:35.775Z,42.75
2022-12-11T15:51:04.823Z,41.25
2022-12-11T15:53:32.924Z,38.35
2022-12-11T15:56:01.480Z,40.05
2022-12-11T15:58:30.212Z,40.17
2022-12-11T16:01:02.607Z,42.03
2022-12-11T16:03:32.169Z,36.42
2022-12-11T16:06:00.262Z,32.47
2022-12-11T16:08:28.327Z,31.60
2022-12-11T16:10:57.394Z,35.53
2022-12-11T16:13:26.505Z,34.85
2022-12-11T16:15:55.394Z,32.65
2022-12-11T16:18:26.658Z,36.80
2022-12-11T16:20:55.604Z,43.47
2022-12-11T16:23:54.618Z,39.95
2022-12-11T16:26:25.773Z,34.70
2022-12-11T16:28:54.581Z,37.80
2022-12-11T16:31:25.052Z,35.58
2022-12-11T16:33:55.667Z,36.17
2022-12-11T16:36:24.647Z,38.75
2022-12-11T16:38:54.335Z,28.67
2022-12-11T16:41:25.005Z,22.60
2022-12-11T16:43:54.700Z,23.10
2022-12-11T16:46:25.399Z,17.15
2022-12-11T16:48:55.400Z,23.33
2022-12-11T16:51:27.646Z,25.90
2022-12-11T16:53:58.666Z,27.75
2022-12-11T16:56:31.586Z,85.50
2022-12-11T16:59:00.187Z,37.40
2022-12-11T17:01:28.673Z,34.38
2022-12-11T17:04:08.888Z,30.98
2022-12-11T17:06:38.283Z,39.90
2022-12-11T17:09:08.372Z,36.35
2022-12-11T17:11:39.652Z,33.80
2022-12-11T17:14:07.821Z,38.78
2022-12-11T17:16:35.868Z,33.63
2022-12-11T17:19:07.424Z,37.33
2022-12-11T17:21:35.494Z,30.20
2022-12-11T17:24:03.542Z,29.67
2022-12-11T17:26:31.686Z,31.63
2022-12-11T17:29:00.015Z,23.05
2022-12-11T17:31:28.406Z,20.35
2022-12-11T17:33:57.419Z,14.63
2022-12-11T17:36:27.233Z,19.42
2022-12-11T17:38:55.424Z,16.02
2022-12-11T17:41:23.560Z,21.42
2022-12-11T17:43:52.953Z,18.48
2022-12-11T17:46:21.982Z,20.58
2022-12-11T17:48:50.157Z,15.98
2022-12-11T17:51:23.990Z,14.30
2022-12-11T17:53:55.413Z,15.82
2022-12-11T17:56:24.101Z,18.15
2022-12-11T17:58:52.334Z,19.85
2022-12-11T18:01:21.583Z,19.73
2022-12-11T18:03:49.934Z,19.85
2022-12-11T18:06:18.701Z,20.95
2022-12-11T18:08:46.957Z,22.30
2022-12-11T18:11:19.126Z,19.08
2022-12-11T18:13:47.602Z,23.02
2022-12-11T18:16:18.222Z,23.35
2022-12-11T18:18:47.787Z,23.90
2022-12-11T18:21:17.570Z,19.63
2022-12-11T18:23:45.762Z,20.67
2022-12-11T18:26:14.663Z,18.13
2022-12-11T18:28:44.827Z,19.38
2022-12-11T18:31:13.671Z,15.90
2022-12-11T18:33:43.793Z,18.77
2022-12-11T18:36:12.899Z,16.15
2022-12-11T18:38:42.143Z,14.80
2022-12-11T18:41:12.345Z,17.23
2022-12-11T18:43:40.721Z,15.10
2022-12-11T18:46:14.814Z,19.80
2022-12-11T18:48:43.597Z,16.95
2022-12-11T18:51:13.348Z,19.67
2022-12-11T18:53:41.893Z,22.92
2022-12-11T18:56:12.171Z,27.73
2022-12-11T18:58:40.395Z,31.70
2022-12-11T19:01:12.534Z,40.15
2022-12-11T19:03:41.584Z,37.70
2022-12-11T19:06:12.172Z,40.67
2022-12-11T19:08:41.094Z,41.58
2022-12-11T19:11:10.455Z,35.53
2022-12-11T19:13:39.743Z,38.78
2022-12-11T19:16:15.982Z,41.50
2022-12-11T19:18:45.917Z,30.42
2022-12-11T19:21:20.960Z,27.10
2022-12-11T19:23:49.163Z,32.35
2022-12-11T19:26:20.015Z,26.23
2022-12-11T19:28:49.220Z,26.95
2022-12-11T19:31:23.859Z,24.75
2022-12-11T19:33:52.177Z,27.98
2022-12-11T19:36:24.364Z,18.63
2022-12-11T19:38:57.963Z,18.42
2022-12-11T19:41:29.462Z,19.85
2022-12-11T19:43:59.367Z,23.67
2022-12-11T19:46:29.645Z,21.23
2022-12-11T19:48:58.785Z,21.38
2022-12-11T19:51:29.778Z,15.57
2022-12-11T19:53:58.470Z,19.33
2022-12-11T19:56:30.915Z,15.15
2022-12-11T19:59:01.180Z,19.15
2022-12-11T20:01:31.877Z,14.35
2022-12-11T20:04:01.655Z,16.50
2022-12-11T20:06:31.040Z,18.42
2022-12-11T20:08:59.847Z,20.05
2022-12-11T20:11:28.335Z,18.23
2022-12-11T20:13:57.177Z,18.00
2022-12-11T20:16:46.234Z,20.88
2022-12-11T20:19:15.249Z,19.52
2022-12-11T20:21:44.116Z,14.30
2022-12-11T20:24:12.813Z,18.33
2022-12-11T20:26:40.869Z,13.27
2022-12-11T20:29:09.508Z,23.95
2022-12-11T20:31:38.764Z,18.95
2022-12-11T20:34:07.876Z,22.17
2022-12-11T20:36:37.729Z,11.75
2022-12-11T20:39:06.200Z,12.68
2022-12-11T20:41:34.422Z,13.20
2022-12-11T20:44:02.772Z,11.82
2022-12-11T20:46:30.861Z,10.88
2022-12-11T20:48:59.835Z,14.93
2022-12-11T20:51:29.190Z,14.73
2022-12-11T20:53:59.732Z,16.90
2022-12-11T20:56:30.000Z,20.58
2022-12-11T20:58:59.401Z,13.32
2022-12-11T21:01:30.205Z,14.13
2022-12-11T21:03:58.714Z,17.00
2022-12-11T21:06:31.446Z,12.77
2022-12-11T21:09:04.457Z,13.13
2022-12-11T21:11:35.947Z,12.20
2022-12-11T21:14:04.666Z,10.38
2022-12-11T21:16:33.207Z,15.15
2022-12-11T21:19:01.679Z,14.02
2022-12-11T21:21:36.184Z,16.13
2022-12-11T21:24:06.275Z,15.07
2022-12-11T21:26:35.728Z,18.67
2022-12-11T21:29:04.929Z,20.92
2022-12-11T21:31:33.019Z,16.58
2022-12-11T21:34:02.568Z,15.63
2022-12-11T21:36:30.639Z,17.75
2022-12-11T21:39:00.018Z,17.77
2022-12-11T21:41:30.261Z,15.13
2022-12-11T21:46:46.502Z,13.65
2022-12-11T21:49:14.570Z,10.68
2022-12-11T21:51:47.170Z,20.70
2022-12-11T21:54:19.001Z,19.20
2022-12-11T21:56:48.550Z,30.52
2022-12-11T21:59:16.788Z,15.23
2022-12-11T22:01:47.120Z,12.57
2022-12-11T22:04:16.506Z,15.38
2022-12-11T22:06:47.094Z,19.35
2022-12-11T22:09:15.768Z,15.13
2022-12-11T22:11:46.211Z,18.40
2022-12-11T22:14:18.359Z,16.67
2022-12-11T22:16:46.745Z,14.10
2022-12-11T22:19:14.970Z,18.17
2022-12-11T22:22:57.426Z,24.13
2022-12-11T22:25:25.648Z,31.42
2022-12-11T22:27:53.800Z,33.72
2022-12-11T22:30:23.193Z,30.58
2022-12-11T22:32:51.190Z,44.53
2022-12-11T22:35:24.120Z,61.35
2022-12-11T22:37:55.423Z,51.65
2022-12-11T22:40:23.703Z,66.75
2022-12-11T22:42:51.764Z,74.10
2022-12-11T22:45:20.007Z,77.97
2022-12-11T22:47:49.397Z,71.78
2022-12-11T22:50:18.527Z,91.25
2022-12-11T22:52:46.542Z,87.38
2022-12-11T22:55:15.796Z,80.32
2022-12-11T22:57:46.573Z,109.93
2022-12-11T23:00:15.629Z,93.38
2022-12-11T23:02:44.058Z,113.30
2022-12-11T23:05:14.132Z,98.90
2022-12-11T23:07:42.745Z,106.18
2022-12-11T23:10:11.820Z,102.57
2022-12-11T23:12:39.867Z,93.13
2022-12-11T23:15:09.463Z,91.03
2022-12-11T23:17:37.681Z,92.07
2022-12-11T23:20:07.256Z,88.80
2022-12-11T23:22:36.674Z,103.95
2022-12-11T23:25:05.187Z,100.82
2022-12-11T23:27:33.202Z,109.13
2022-12-11T23:30:01.225Z,111.65
2022-12-11T23:32:29.256Z,97.88
2022-12-11T23:34:57.321Z,105.28
2022-12-11T23:37:25.345Z,90.25
2022-12-11T23:39:54.918Z,94.35
2022-12-11T23:42:23.029Z,98.82
2022-12-11T23:44:51.067Z,95.97
2022-12-11T23:47:19.077Z,93.13
2022-12-11T23:49:47.097Z,116.35
2022-12-11T23:52:15.368Z,106.65
2022-12-11T23:54:43.400Z,99.72
2022-12-11T23:57:12.894Z,89.20
2022-12-11T23:59:40.964Z,103.43
